sensor_id;sensor_type;location;lat;lon;timestamp;P1;durP1;ratioP1;P2;durP2;ratioP2
72674;SDS011;60752;53.962;9.614;2023-02-28T00:00:21;7.93;;;3.40;;
72674;SDS011;60752;53.962;9.614;2023-02-28T00:05:43;9.95;;;3.80;;
72674;SDS011;60752;53.962;9.614;2023-02-28T00:11:05;7.40;;;2.60;;
72674;SDS011;60752;53.962;9.614;2023-02-28T00:16:28;5.60;;;2.15;;
72674;SDS011;60752;53.962;9.614;2023-02-28T00:21:50;4.78;;;2.00;;
72674;SDS011;60752;53.962;9.614;2023-02-28T00:27:10;5.47;;;1.70;;
72674;SDS011;60752;53.962;9.614;2023-02-28T00:32:31;5.28;;;1.90;;
72674;SDS011;60752;53.962;9.614;2023-02-28T00:37:54;5.88;;;2.15;;
72674;SDS011;60752;53.962;9.614;2023-02-28T00:43:14;6.40;;;2.20;;
72674;SDS011;60752;53.962;9.614;2023-02-28T00:48:35;10.03;;;3.00;;
72674;SDS011;60752;53.962;9.614;2023-02-28T00:53:58;6.60;;;2.47;;
72674;SDS011;60752;53.962;9.614;2023-02-28T00:59:18;8.25;;;2.70;;
72674;SDS011;60752;53.962;9.614;2023-02-28T01:04:39;8.90;;;2.63;;
72674;SDS011;60752;53.962;9.614;2023-02-28T01:10:01;6.88;;;2.40;;
72674;SDS011;60752;53.962;9.614;2023-02-28T01:15:22;6.25;;;2.72;;
72674;SDS011;60752;53.962;9.614;2023-02-28T01:20:43;10.00;;;3.30;;
72674;SDS011;60752;53.962;9.614;2023-02-28T01:26:06;5.15;;;2.63;;
72674;SDS011;60752;53.962;9.614;2023-02-28T01:31:27;9.35;;;3.47;;
72674;SDS011;60752;53.962;9.614;2023-02-28T01:36:48;8.43;;;3.83;;
72674;SDS011;60752;53.962;9.614;2023-02-28T01:42:10;10.93;;;3.77;;
72674;SDS011;60752;53.962;9.614;2023-02-28T01:47:32;10.88;;;4.00;;
72674;SDS011;60752;53.962;9.614;2023-02-28T01:53:00;8.80;;;4.15;;
72674;SDS011;60752;53.962;9.614;2023-02-28T01:58:26;6.23;;;2.83;;
72674;SDS011;60752;53.962;9.614;2023-02-28T02:03:47;12.35;;;3.78;;
72674;SDS011;60752;53.962;9.614;2023-02-28T02:09:08;7.70;;;3.58;;
72674;SDS011;60752;53.962;9.614;2023-02-28T02:14:43;8.83;;;3.50;;
72674;SDS011;60752;53.962;9.614;2023-02-28T02:20:32;7.20;;;3.78;;
72674;SDS011;60752;53.962;9.614;2023-02-28T02:26:22;7.50;;;3.25;;
72674;SDS011;60752;53.962;9.614;2023-02-28T02:32:20;8.23;;;3.80;;
72674;SDS011;60752;53.962;9.614;2023-02-28T02:38:08;9.77;;;3.50;;
72674;SDS011;60752;53.962;9.614;2023-02-28T02:43:34;9.95;;;3.83;;
72674;SDS011;60752;53.962;9.614;2023-02-28T02:48:58;8.45;;;3.85;;
72674;SDS011;60752;53.962;9.614;2023-02-28T02:54:24;9.60;;;3.73;;
72674;SDS011;60752;53.962;9.614;2023-02-28T02:59:48;14.40;;;3.53;;
72674;SDS011;60752;53.962;9.614;2023-02-28T03:05:12;9.45;;;3.83;;
72674;SDS011;60752;53.962;9.614;2023-02-28T03:10:41;8.50;;;3.60;;
72674;SDS011;60752;53.962;9.614;2023-02-28T03:16:11;8.27;;;4.05;;
72674;SDS011;60752;53.962;9.614;2023-02-28T03:21:45;9.32;;;3.33;;
72674;SDS011;60752;53.962;9.614;2023-02-28T03:27:19;10.83;;;3.93;;
72674;SDS011;60752;53.962;9.614;2023-02-28T03:32:45;9.40;;;3.97;;
72674;SDS011;60752;53.962;9.614;2023-02-28T03:38:16;10.45;;;3.90;;
72674;SDS011;60752;53.962;9.614;2023-02-28T03:43:43;10.40;;;4.50;;
72674;SDS011;60752;53.962;9.614;2023-02-28T03:49:08;11.53;;;5.60;;
72674;SDS011;60752;53.962;9.614;2023-02-28T03:54:35;15.13;;;5.28;;
72674;SDS011;60752;53.962;9.614;2023-02-28T04:00:02;13.90;;;5.03;;
72674;SDS011;60752;53.962;9.614;2023-02-28T04:05:26;10.27;;;3.73;;
72674;SDS011;60752;53.962;9.614;2023-02-28T04:10:50;7.13;;;3.30;;
72674;SDS011;60752;53.962;9.614;2023-02-28T04:16:15;8.98;;;3.72;;
72674;SDS011;60752;53.962;9.614;2023-02-28T04:21:36;10.97;;;3.60;;
72674;SDS011;60752;53.962;9.614;2023-02-28T04:26:58;10.17;;;4.13;;
72674;SDS011;60752;53.962;9.614;2023-02-28T04:32:20;10.95;;;4.03;;
72674;SDS011;60752;53.962;9.614;2023-02-28T04:37:40;8.68;;;3.60;;
72674;SDS011;60752;53.962;9.614;2023-02-28T04:43:01;11.47;;;4.50;;
72674;SDS011;60752;53.962;9.614;2023-02-28T04:48:24;12.73;;;4.07;;
72674;SDS011;60752;53.962;9.614;2023-02-28T04:53:45;12.55;;;3.97;;
72674;SDS011;60752;53.962;9.614;2023-02-28T04:59:07;10.43;;;4.17;;
72674;SDS011;60752;53.962;9.614;2023-02-28T05:04:29;10.63;;;3.65;;
72674;SDS011;60752;53.962;9.614;2023-02-28T05:09:49;9.38;;;4.50;;
72674;SDS011;60752;53.962;9.614;2023-02-28T05:15:10;9.07;;;4.17;;
72674;SDS011;60752;53.962;9.614;2023-02-28T05:20:35;10.40;;;4.17;;
72674;SDS011;60752;53.962;9.614;2023-02-28T05:25:56;9.35;;;4.07;;
72674;SDS011;60752;53.962;9.614;2023-02-28T05:31:17;11.45;;;4.03;;
72674;SDS011;60752;53.962;9.614;2023-02-28T05:36:39;9.67;;;4.50;;
72674;SDS011;60752;53.962;9.614;2023-02-28T05:42:00;10.40;;;4.38;;
72674;SDS011;60752;53.962;9.614;2023-02-28T05:47:21;8.10;;;3.72;;
72674;SDS011;60752;53.962;9.614;2023-02-28T05:52:43;10.93;;;4.63;;
72674;SDS011;60752;53.962;9.614;2023-02-28T05:58:03;10.50;;;4.85;;
72674;SDS011;60752;53.962;9.614;2023-02-28T06:03:24;11.65;;;5.07;;
72674;SDS011;60752;53.962;9.614;2023-02-28T06:08:46;10.43;;;5.47;;
72674;SDS011;60752;53.962;9.614;2023-02-28T06:14:07;11.10;;;5.20;;
72674;SDS011;60752;53.962;9.614;2023-02-28T06:19:34;17.98;;;5.53;;
72674;SDS011;60752;53.962;9.614;2023-02-28T06:24:56;10.50;;;5.07;;
72674;SDS011;60752;53.962;9.614;2023-02-28T06:30:17;11.43;;;4.43;;
72674;SDS011;60752;53.962;9.614;2023-02-28T06:35:38;11.63;;;4.93;;
72674;SDS011;60752;53.962;9.614;2023-02-28T06:41:00;12.95;;;4.25;;
72674;SDS011;60752;53.962;9.614;2023-02-28T06:46:21;10.07;;;4.50;;
72674;SDS011;60752;53.962;9.614;2023-02-28T06:51:43;12.05;;;4.32;;
72674;SDS011;60752;53.962;9.614;2023-02-28T06:57:06;10.90;;;4.45;;
72674;SDS011;60752;53.962;9.614;2023-02-28T07:02:27;10.73;;;4.80;;
72674;SDS011;60752;53.962;9.614;2023-02-28T07:07:48;11.10;;;4.90;;
72674;SDS011;60752;53.962;9.614;2023-02-28T07:13:17;11.25;;;5.25;;
72674;SDS011;60752;53.962;9.614;2023-02-28T07:18:38;10.38;;;4.88;;
72674;SDS011;60752;53.962;9.614;2023-02-28T07:23:59;13.77;;;5.70;;
72674;SDS011;60752;53.962;9.614;2023-02-28T07:29:21;13.98;;;4.90;;
72674;SDS011;60752;53.962;9.614;2023-02-28T07:34:42;12.05;;;4.72;;
72674;SDS011;60752;53.962;9.614;2023-02-28T07:40:03;9.83;;;4.20;;
72674;SDS011;60752;53.962;9.614;2023-02-28T07:45:25;10.93;;;4.35;;
72674;SDS011;60752;53.962;9.614;2023-02-28T07:50:53;14.68;;;4.28;;
72674;SDS011;60752;53.962;9.614;2023-02-28T07:56:14;7.60;;;3.27;;
72674;SDS011;60752;53.962;9.614;2023-02-28T08:01:37;7.53;;;2.90;;
72674;SDS011;60752;53.962;9.614;2023-02-28T08:06:58;9.02;;;2.38;;
72674;SDS011;60752;53.962;9.614;2023-02-28T08:12:18;6.07;;;2.40;;
72674;SDS011;60752;53.962;9.614;2023-02-28T08:17:40;7.50;;;2.27;;
72674;SDS011;60752;53.962;9.614;2023-02-28T08:23:01;5.57;;;2.28;;
72674;SDS011;60752;53.962;9.614;2023-02-28T08:28:22;6.97;;;2.45;;
72674;SDS011;60752;53.962;9.614;2023-02-28T08:33:45;5.63;;;2.53;;
72674;SDS011;60752;53.962;9.614;2023-02-28T08:39:06;8.32;;;2.38;;
72674;SDS011;60752;53.962;9.614;2023-02-28T08:44:27;7.38;;;2.30;;
72674;SDS011;60752;53.962;9.614;2023-02-28T08:49:49;6.90;;;2.60;;
72674;SDS011;60752;53.962;9.614;2023-02-28T08:55:10;5.23;;;2.23;;
72674;SDS011;60752;53.962;9.614;2023-02-28T09:00:31;4.63;;;2.25;;
72674;SDS011;60752;53.962;9.614;2023-02-28T09:05:53;8.90;;;2.35;;
72674;SDS011;60752;53.962;9.614;2023-02-28T09:11:15;6.57;;;2.20;;
72674;SDS011;60752;53.962;9.614;2023-02-28T09:16:36;6.43;;;2.42;;
72674;SDS011;60752;53.962;9.614;2023-02-28T09:21:58;5.68;;;2.40;;
72674;SDS011;60752;53.962;9.614;2023-02-28T09:27:19;5.83;;;2.30;;
72674;SDS011;60752;53.962;9.614;2023-02-28T09:32:42;5.13;;;2.17;;
72674;SDS011;60752;53.962;9.614;2023-02-28T09:38:05;5.88;;;2.08;;
72674;SDS011;60752;53.962;9.614;2023-02-28T09:43:27;6.00;;;2.20;;
72674;SDS011;60752;53.962;9.614;2023-02-28T09:48:52;6.07;;;2.23;;
72674;SDS011;60752;53.962;9.614;2023-02-28T09:54:18;4.80;;;1.88;;
72674;SDS011;60752;53.962;9.614;2023-02-28T09:59:46;6.65;;;2.22;;
72674;SDS011;60752;53.962;9.614;2023-02-28T10:05:12;8.23;;;3.27;;
72674;SDS011;60752;53.962;9.614;2023-02-28T10:10:39;4.72;;;2.25;;
72674;SDS011;60752;53.962;9.614;2023-02-28T10:16:02;5.30;;;1.88;;
72674;SDS011;60752;53.962;9.614;2023-02-28T10:21:28;4.53;;;1.63;;
72674;SDS011;60752;53.962;9.614;2023-02-28T10:26:53;6.38;;;1.70;;
72674;SDS011;60752;53.962;9.614;2023-02-28T10:32:22;4.85;;;1.42;;
72674;SDS011;60752;53.962;9.614;2023-02-28T10:37:45;8.07;;;2.70;;
72674;SDS011;60752;53.962;9.614;2023-02-28T10:43:17;32.27;;;8.80;;
72674;SDS011;60752;53.962;9.614;2023-02-28T10:48:41;10.00;;;2.90;;
72674;SDS011;60752;53.962;9.614;2023-02-28T10:54:04;4.30;;;1.52;;
72674;SDS011;60752;53.962;9.614;2023-02-28T10:59:28;3.03;;;1.10;;
72674;SDS011;60752;53.962;9.614;2023-02-28T11:04:51;4.95;;;1.50;;
72674;SDS011;60752;53.962;9.614;2023-02-28T11:10:16;4.60;;;1.40;;
72674;SDS011;60752;53.962;9.614;2023-02-28T11:15:41;11.20;;;3.23;;
72674;SDS011;60752;53.962;9.614;2023-02-28T11:21:02;6.38;;;1.92;;
72674;SDS011;60752;53.962;9.614;2023-02-28T11:26:36;3.67;;;1.38;;
72674;SDS011;60752;53.962;9.614;2023-02-28T11:32:05;3.47;;;1.37;;
72674;SDS011;60752;53.962;9.614;2023-02-28T11:37:32;6.07;;;1.20;;
72674;SDS011;60752;53.962;9.614;2023-02-28T11:42:56;3.65;;;1.33;;
72674;SDS011;60752;53.962;9.614;2023-02-28T11:48:27;6.50;;;1.50;;
72674;SDS011;60752;53.962;9.614;2023-02-28T11:54:01;2.83;;;0.90;;
72674;SDS011;60752;53.962;9.614;2023-02-28T11:59:43;3.88;;;1.70;;
72674;SDS011;60752;53.962;9.614;2023-02-28T12:05:17;3.10;;;1.13;;
72674;SDS011;60752;53.962;9.614;2023-02-28T12:10:44;4.40;;;1.50;;
72674;SDS011;60752;53.962;9.614;2023-02-28T12:16:24;4.18;;;1.38;;
72674;SDS011;60752;53.962;9.614;2023-02-28T12:22:03;5.03;;;1.38;;
72674;SDS011;60752;53.962;9.614;2023-02-28T12:27:37;3.50;;;1.10;;
72674;SDS011;60752;53.962;9.614;2023-02-28T12:33:01;3.23;;;1.30;;
72674;SDS011;60752;53.962;9.614;2023-02-28T12:38:27;7.20;;;1.60;;
72674;SDS011;60752;53.962;9.614;2023-02-28T12:43:52;3.33;;;1.20;;
72674;SDS011;60752;53.962;9.614;2023-02-28T12:49:19;6.53;;;1.20;;
72674;SDS011;60752;53.962;9.614;2023-02-28T12:54:47;3.45;;;1.30;;
72674;SDS011;60752;53.962;9.614;2023-02-28T13:00:13;5.88;;;1.27;;
72674;SDS011;60752;53.962;9.614;2023-02-28T13:05:39;5.80;;;1.50;;
72674;SDS011;60752;53.962;9.614;2023-02-28T13:11:24;4.47;;;1.50;;
72674;SDS011;60752;53.962;9.614;2023-02-28T13:16:50;4.38;;;1.45;;
72674;SDS011;60752;53.962;9.614;2023-02-28T13:22:35;3.50;;;1.43;;
72674;SDS011;60752;53.962;9.614;2023-02-28T13:27:59;4.93;;;1.60;;
72674;SDS011;60752;53.962;9.614;2023-02-28T13:33:22;4.85;;;1.48;;
72674;SDS011;60752;53.962;9.614;2023-02-28T13:38:45;13.48;;;1.55;;
72674;SDS011;60752;53.962;9.614;2023-02-28T13:44:09;3.73;;;1.23;;
72674;SDS011;60752;53.962;9.614;2023-02-28T13:49:31;6.07;;;1.75;;
72674;SDS011;60752;53.962;9.614;2023-02-28T13:54:58;4.35;;;1.58;;
72674;SDS011;60752;53.962;9.614;2023-02-28T14:00:45;3.37;;;1.30;;
72674;SDS011;60752;53.962;9.614;2023-02-28T14:06:23;4.30;;;1.63;;
72674;SDS011;60752;53.962;9.614;2023-02-28T14:11:47;4.93;;;1.63;;
72674;SDS011;60752;53.962;9.614;2023-02-28T14:17:12;5.30;;;2.00;;
72674;SDS011;60752;53.962;9.614;2023-02-28T14:22:45;5.13;;;1.90;;
72674;SDS011;60752;53.962;9.614;2023-02-28T14:28:17;5.68;;;2.63;;
72674;SDS011;60752;53.962;9.614;2023-02-28T14:33:57;4.97;;;1.65;;
72674;SDS011;60752;53.962;9.614;2023-02-28T14:39:25;3.93;;;1.40;;
72674;SDS011;60752;53.962;9.614;2023-02-28T14:44:53;3.80;;;1.60;;
72674;SDS011;60752;53.962;9.614;2023-02-28T14:50:19;5.68;;;1.70;;
72674;SDS011;60752;53.962;9.614;2023-02-28T14:55:43;4.60;;;1.60;;
72674;SDS011;60752;53.962;9.614;2023-02-28T15:01:05;5.40;;;1.70;;
72674;SDS011;60752;53.962;9.614;2023-02-28T15:06:30;6.28;;;1.77;;
72674;SDS011;60752;53.962;9.614;2023-02-28T15:11:52;4.07;;;1.80;;
72674;SDS011;60752;53.962;9.614;2023-02-28T15:17:16;5.50;;;1.63;;
72674;SDS011;60752;53.962;9.614;2023-02-28T15:22:44;5.65;;;1.90;;
72674;SDS011;60752;53.962;9.614;2023-02-28T15:28:09;3.45;;;1.50;;
72674;SDS011;60752;53.962;9.614;2023-02-28T15:33:34;6.53;;;1.80;;
72674;SDS011;60752;53.962;9.614;2023-02-28T15:38:56;6.55;;;2.17;;
72674;SDS011;60752;53.962;9.614;2023-02-28T15:44:22;5.07;;;2.30;;
72674;SDS011;60752;53.962;9.614;2023-02-28T15:49:45;5.53;;;1.97;;
72674;SDS011;60752;53.962;9.614;2023-02-28T15:55:21;4.72;;;2.15;;
72674;SDS011;60752;53.962;9.614;2023-02-28T16:00:59;3.72;;;1.50;;
72674;SDS011;60752;53.962;9.614;2023-02-28T16:06:33;4.90;;;1.77;;
72674;SDS011;60752;53.962;9.614;2023-02-28T16:12:00;4.70;;;1.67;;
72674;SDS011;60752;53.962;9.614;2023-02-28T16:17:23;4.82;;;1.80;;
72674;SDS011;60752;53.962;9.614;2023-02-28T16:22:46;4.32;;;1.60;;
72674;SDS011;60752;53.962;9.614;2023-02-28T16:28:09;5.67;;;1.83;;
72674;SDS011;60752;53.962;9.614;2023-02-28T16:33:38;4.47;;;1.85;;
72674;SDS011;60752;53.962;9.614;2023-02-28T16:38:58;4.97;;;1.77;;
72674;SDS011;60752;53.962;9.614;2023-02-28T16:44:24;6.70;;;2.63;;
72674;SDS011;60752;53.962;9.614;2023-02-28T16:49:47;6.68;;;3.25;;
72674;SDS011;60752;53.962;9.614;2023-02-28T16:55:09;6.00;;;2.20;;
72674;SDS011;60752;53.962;9.614;2023-02-28T17:00:32;7.83;;;2.50;;
72674;SDS011;60752;53.962;9.614;2023-02-28T17:05:53;9.47;;;3.97;;
72674;SDS011;60752;53.962;9.614;2023-02-28T17:11:14;5.88;;;2.88;;
72674;SDS011;60752;53.962;9.614;2023-02-28T17:16:37;8.40;;;2.50;;
72674;SDS011;60752;53.962;9.614;2023-02-28T17:21:58;7.80;;;3.07;;
72674;SDS011;60752;53.962;9.614;2023-02-28T17:27:19;7.32;;;2.38;;
72674;SDS011;60752;53.962;9.614;2023-02-28T17:32:41;7.70;;;2.85;;
72674;SDS011;60752;53.962;9.614;2023-02-28T17:38:02;7.93;;;3.07;;
72674;SDS011;60752;53.962;9.614;2023-02-28T17:43:23;7.18;;;3.20;;
72674;SDS011;60752;53.962;9.614;2023-02-28T17:48:45;11.52;;;3.70;;
72674;SDS011;60752;53.962;9.614;2023-02-28T17:54:06;11.53;;;4.83;;
72674;SDS011;60752;53.962;9.614;2023-02-28T17:59:27;13.17;;;5.77;;
72674;SDS011;60752;53.962;9.614;2023-02-28T18:04:49;14.38;;;5.50;;
72674;SDS011;60752;53.962;9.614;2023-02-28T18:10:11;15.52;;;6.72;;
72674;SDS011;60752;53.962;9.614;2023-02-28T18:15:34;17.33;;;7.20;;
72674;SDS011;60752;53.962;9.614;2023-02-28T18:20:56;20.67;;;9.07;;
72674;SDS011;60752;53.962;9.614;2023-02-28T18:26:18;23.77;;;12.07;;
72674;SDS011;60752;53.962;9.614;2023-02-28T18:31:40;21.00;;;11.17;;
72674;SDS011;60752;53.962;9.614;2023-02-28T18:37:02;15.48;;;9.35;;
72674;SDS011;60752;53.962;9.614;2023-02-28T18:42:23;12.15;;;6.65;;
72674;SDS011;60752;53.962;9.614;2023-02-28T18:47:44;10.10;;;5.90;;
72674;SDS011;60752;53.962;9.614;2023-02-28T18:53:06;8.47;;;4.90;;
72674;SDS011;60752;53.962;9.614;2023-02-28T18:58:27;12.23;;;5.45;;
72674;SDS011;60752;53.962;9.614;2023-02-28T19:03:48;11.13;;;5.20;;
72674;SDS011;60752;53.962;9.614;2023-02-28T19:09:11;11.97;;;3.90;;
72674;SDS011;60752;53.962;9.614;2023-02-28T19:14:32;12.02;;;6.07;;
72674;SDS011;60752;53.962;9.614;2023-02-28T19:19:52;8.98;;;4.57;;
72674;SDS011;60752;53.962;9.614;2023-02-28T19:25:14;7.30;;;3.43;;
72674;SDS011;60752;53.962;9.614;2023-02-28T19:30:35;9.45;;;3.15;;
72674;SDS011;60752;53.962;9.614;2023-02-28T19:35:58;10.50;;;4.15;;
72674;SDS011;60752;53.962;9.614;2023-02-28T19:41:20;16.20;;;7.37;;
72674;SDS011;60752;53.962;9.614;2023-02-28T19:46:41;25.80;;;11.23;;
72674;SDS011;60752;53.962;9.614;2023-02-28T19:52:03;44.30;;;17.13;;
72674;SDS011;60752;53.962;9.614;2023-02-28T19:57:25;43.75;;;17.90;;
72674;SDS011;60752;53.962;9.614;2023-02-28T20:02:46;33.47;;;12.90;;
72674;SDS011;60752;53.962;9.614;2023-02-28T20:08:07;28.33;;;11.98;;
72674;SDS011;60752;53.962;9.614;2023-02-28T20:13:29;30.98;;;12.18;;
72674;SDS011;60752;53.962;9.614;2023-02-28T20:18:50;32.90;;;12.97;;
72674;SDS011;60752;53.962;9.614;2023-02-28T20:24:10;26.13;;;11.77;;
72674;SDS011;60752;53.962;9.614;2023-02-28T20:29:33;28.52;;;11.43;;
72674;SDS011;60752;53.962;9.614;2023-02-28T20:34:54;33.20;;;11.40;;
72674;SDS011;60752;53.962;9.614;2023-02-28T20:40:15;27.70;;;11.27;;
72674;SDS011;60752;53.962;9.614;2023-02-28T20:45:37;21.83;;;8.07;;
72674;SDS011;60752;53.962;9.614;2023-02-28T20:50:58;14.95;;;5.70;;
72674;SDS011;60752;53.962;9.614;2023-02-28T20:56:20;11.37;;;4.77;;
72674;SDS011;60752;53.962;9.614;2023-02-28T21:01:42;11.70;;;4.00;;
72674;SDS011;60752;53.962;9.614;2023-02-28T21:07:03;10.10;;;4.50;;
72674;SDS011;60752;53.962;9.614;2023-02-28T21:12:24;10.70;;;4.73;;
72674;SDS011;60752;53.962;9.614;2023-02-28T21:17:46;8.10;;;3.58;;
72674;SDS011;60752;53.962;9.614;2023-02-28T21:23:07;8.23;;;4.05;;
72674;SDS011;60752;53.962;9.614;2023-02-28T21:28:27;17.77;;;3.80;;
72674;SDS011;60752;53.962;9.614;2023-02-28T21:33:51;8.67;;;3.47;;
72674;SDS011;60752;53.962;9.614;2023-02-28T21:39:12;7.80;;;3.97;;
72674;SDS011;60752;53.962;9.614;2023-02-28T21:44:34;9.95;;;4.10;;
72674;SDS011;60752;53.962;9.614;2023-02-28T21:49:56;10.27;;;4.00;;
72674;SDS011;60752;53.962;9.614;2023-02-28T21:55:17;9.95;;;3.78;;
72674;SDS011;60752;53.962;9.614;2023-02-28T22:00:38;8.90;;;3.90;;
72674;SDS011;60752;53.962;9.614;2023-02-28T22:06:00;9.13;;;4.47;;
72674;SDS011;60752;53.962;9.614;2023-02-28T22:11:21;10.75;;;4.45;;
72674;SDS011;60752;53.962;9.614;2023-02-28T22:16:42;11.85;;;5.20;;
72674;SDS011;60752;53.962;9.614;2023-02-28T22:22:05;10.13;;;4.30;;
72674;SDS011;60752;53.962;9.614;2023-02-28T22:27:25;9.07;;;4.40;;
72674;SDS011;60752;53.962;9.614;2023-02-28T22:32:46;14.27;;;4.25;;
72674;SDS011;60752;53.962;9.614;2023-02-28T22:38:08;11.32;;;4.70;;
72674;SDS011;60752;53.962;9.614;2023-02-28T22:43:29;10.47;;;4.10;;
72674;SDS011;60752;53.962;9.614;2023-02-28T22:48:50;10.82;;;4.43;;
72674;SDS011;60752;53.962;9.614;2023-02-28T22:54:12;7.65;;;3.85;;
72674;SDS011;60752;53.962;9.614;2023-02-28T22:59:32;9.13;;;4.57;;
72674;SDS011;60752;53.962;9.614;2023-02-28T23:04:53;8.63;;;4.68;;
72674;SDS011;60752;53.962;9.614;2023-02-28T23:10:16;10.68;;;4.53;;
72674;SDS011;60752;53.962;9.614;2023-02-28T23:15:38;11.07;;;4.43;;
72674;SDS011;60752;53.962;9.614;2023-02-28T23:20:59;11.47;;;4.80;;
72674;SDS011;60752;53.962;9.614;2023-02-28T23:26:21;11.18;;;4.55;;
72674;SDS011;60752;53.962;9.614;2023-02-28T23:31:43;16.65;;;5.30;;
72674;SDS011;60752;53.962;9.614;2023-02-28T23:37:04;11.30;;;5.07;;
72674;SDS011;60752;53.962;9.614;2023-02-28T23:42:26;11.13;;;4.32;;
72674;SDS011;60752;53.962;9.614;2023-02-28T23:47:47;10.63;;;5.03;;
72674;SDS011;60752;53.962;9.614;2023-02-28T23:53:07;10.80;;;5.10;;
72674;SDS011;60752;53.962;9.614;2023-02-28T23:58:29;12.80;;;4.50;;
